TimeCST,TemperatureF,Dew PointF,Humidity,Sea Level PressureIn,VisibilityMPH,Wind Direction,Wind SpeedMPH,Gust SpeedMPH,PrecipitationIn,Events,Conditions,WindDirDegrees,DateUTC
12:53 AM,18.0,10.0,71,30.69,10.0,NNW,3.5,-,N/A,,Clear,340,2012-02-12 06:53:00
1:53 AM,18.0,9.0,68,30.70,10.0,NNW,3.5,-,N/A,,Clear,330,2012-02-12 07:53:00
2:53 AM,17.1,9.0,71,30.69,10.0,North,3.5,-,N/A,,Clear,350,2012-02-12 08:53:00
3:53 AM,19.0,9.0,65,30.67,10.0,NE,3.5,-,N/A,,Clear,50,2012-02-12 09:53:00
4:53 AM,19.0,9.0,65,30.66,10.0,NE,4.6,-,N/A,,Clear,50,2012-02-12 10:53:00
5:53 AM,19.0,8.1,62,30.64,10.0,Calm,Calm,-,N/A,,Clear,0,2012-02-12 11:53:00
6:53 AM,18.0,7.0,62,30.63,10.0,East,5.8,-,N/A,,Clear,80,2012-02-12 12:53:00
7:53 AM,18.0,8.1,65,30.62,10.0,East,4.6,-,N/A,,Clear,90,2012-02-12 13:53:00
8:53 AM,24.1,9.0,53,30.62,10.0,ESE,8.1,-,N/A,,Clear,110,2012-02-12 14:53:00
9:53 AM,28.0,8.1,43,30.61,10.0,ESE,10.4,-,N/A,,Partly Cloudy,110,2012-02-12 15:53:00
10:53 AM,30.9,8.1,38,30.59,10.0,SE,10.4,-,N/A,,Partly Cloudy,130,2012-02-12 16:53:00
11:53 AM,34.0,5.0,30,30.54,10.0,SSE,9.2,-,N/A,,Mostly Cloudy,150,2012-02-12 17:53:00
12:53 PM,34.0,6.1,31,30.51,10.0,South,9.2,-,N/A,,Overcast,170,2012-02-12 18:53:00
1:53 PM,35.1,5.0,28,30.46,10.0,South,9.2,-,N/A,,Overcast,180,2012-02-12 19:53:00
2:53 PM,36.0,1.9,24,30.42,10.0,South,11.5,-,N/A,,Overcast,170,2012-02-12 20:53:00
3:53 PM,36.0,1.9,24,30.39,10.0,South,6.9,-,N/A,,Overcast,170,2012-02-12 21:53:00
4:53 PM,35.1,3.0,26,30.37,10.0,SSE,9.2,-,N/A,,Overcast,160,2012-02-12 22:53:00
5:53 PM,35.1,5.0,28,30.34,10.0,South,8.1,-,N/A,,Overcast,170,2012-02-12 23:53:00
6:53 PM,33.1,8.1,35,30.32,10.0,SSE,4.6,-,N/A,,Mostly Cloudy,150,2012-02-13 00:53:00
7:53 PM,34.0,10.0,37,30.29,10.0,SE,6.9,-,N/A,,Overcast,130,2012-02-13 01:53:00
8:53 PM,35.1,10.0,35,30.29,10.0,South,8.1,-,N/A,,Overcast,180,2012-02-13 02:53:00
9:53 PM,35.1,10.9,37,30.26,10.0,SSE,6.9,-,N/A,,Overcast,160,2012-02-13 03:53:00
10:53 PM,35.1,12.0,39,30.22,10.0,SSE,6.9,-,N/A,,Overcast,160,2012-02-13 04:53:00
11:53 PM,37.0,14.0,39,30.19,6.0,South,21.9,29.9,0.00,Snow,Light Snow,180,2012-02-13 05:53:00